createdAt,value
2023-02-22T00:02:27.713Z,20.95
2023-02-22T00:04:56.734Z,20.13
2023-02-22T00:07:25.222Z,20.13
2023-02-22T00:09:53.261Z,20.67
2023-02-22T00:12:22.280Z,21.88
2023-02-22T00:14:51.511Z,19.98
2023-02-22T00:17:20.709Z,21.35
2023-02-22T00:20:15.463Z,20.85
2023-02-22T00:22:49.135Z,22.88
2023-02-22T00:25:22.770Z,21.88
2023-02-22T00:27:57.234Z,20.52
2023-02-22T00:30:27.952Z,20.70
2023-02-22T00:32:57.202Z,21.15
2023-02-22T00:35:28.980Z,21.58
2023-02-22T00:38:00.229Z,21.05
2023-02-22T00:40:34.092Z,21.52
2023-02-22T00:43:09.222Z,21.75
2023-02-22T00:45:37.965Z,21.48
2023-02-22T00:48:07.562Z,20.42
2023-02-22T00:50:38.328Z,20.58
2023-02-22T00:53:08.106Z,20.30
2023-02-22T00:55:38.572Z,21.25
2023-02-22T00:58:10.319Z,19.65
2023-02-22T01:00:42.338Z,21.20
2023-02-22T01:03:13.193Z,20.67
2023-02-22T01:05:41.252Z,20.20
2023-02-22T01:08:11.374Z,19.75
2023-02-22T01:10:42.303Z,22.08
2023-02-22T01:13:12.610Z,22.60
2023-02-22T01:15:43.134Z,20.25
2023-02-22T01:18:13.163Z,20.30
2023-02-22T01:20:41.047Z,23.30
2023-02-22T01:23:10.888Z,21.88
2023-02-22T01:25:38.744Z,20.65
2023-02-22T01:28:08.163Z,21.65
2023-02-22T01:40:10.234Z,20.58
2023-02-22T01:42:39.989Z,22.08
2023-02-22T01:45:42.328Z,20.27
2023-02-22T01:48:45.687Z,18.67
2023-02-22T01:51:21.246Z,20.17
2023-02-22T01:54:18.352Z,20.23
2023-02-22T01:57:00.366Z,21.27
2023-02-22T01:59:33.406Z,18.55
2023-02-22T02:02:01.877Z,18.73
2023-02-22T02:04:30.290Z,18.42
2023-02-22T02:07:03.174Z,17.55
2023-02-22T02:09:42.530Z,19.80
2023-02-22T02:12:15.416Z,18.35
2023-02-22T02:14:44.455Z,18.08
2023-02-22T02:17:15.816Z,18.80
2023-02-22T02:19:52.671Z,17.58
2023-02-22T02:22:43.671Z,18.60
2023-02-22T02:26:00.760Z,20.08
2023-02-22T02:29:22.203Z,19.42
2023-02-22T02:32:11.907Z,19.30
2023-02-22T02:35:22.268Z,18.55
2023-02-22T02:38:11.076Z,15.90
2023-02-22T02:41:19.632Z,18.17
2023-02-22T02:43:59.661Z,17.13
2023-02-22T02:46:46.095Z,15.32
2023-02-22T02:49:20.863Z,16.70
2023-02-22T02:51:54.140Z,19.15
2023-02-22T02:54:24.309Z,17.02
2023-02-22T02:56:55.073Z,16.98
2023-02-22T02:59:34.744Z,18.65
2023-02-22T03:02:30.598Z,15.80
2023-02-22T03:05:13.453Z,16.67
2023-02-22T03:08:32.187Z,15.70
2023-02-22T03:11:04.393Z,16.20
2023-02-22T03:13:58.062Z,14.30
2023-02-22T03:16:52.882Z,16.60
2023-02-22T03:20:09.915Z,13.77
2023-02-22T03:22:58.051Z,15.25
2023-02-22T03:25:37.469Z,15.20
2023-02-22T03:28:12.215Z,14.52
2023-02-22T03:30:49.113Z,14.77
2023-02-22T03:33:36.689Z,17.60
2023-02-22T03:36:13.664Z,16.88
2023-02-22T03:38:44.465Z,15.00
2023-02-22T03:41:20.514Z,15.68
2023-02-22T03:43:55.741Z,15.73
2023-02-22T03:46:24.854Z,15.80
2023-02-22T03:49:11.554Z,15.07
2023-02-22T03:51:41.554Z,14.18
2023-02-22T03:54:16.574Z,14.55
2023-02-22T03:57:11.603Z,15.82
2023-02-22T03:59:43.359Z,14.85
2023-02-22T04:02:11.173Z,13.90
2023-02-22T04:04:39.152Z,15.02
2023-02-22T04:07:09.110Z,15.77
2023-02-22T04:09:37.374Z,16.58
2023-02-22T04:12:05.713Z,15.27
2023-02-22T04:14:45.077Z,15.23
2023-02-22T04:17:12.851Z,16.00
2023-02-22T04:19:40.860Z,15.77
2023-02-22T04:22:08.864Z,16.67
2023-02-22T04:24:36.550Z,15.38
2023-02-22T04:27:04.477Z,14.77
2023-02-22T04:29:34.723Z,15.50
2023-02-22T04:32:04.628Z,14.98
2023-02-22T04:34:32.817Z,14.25
2023-02-22T04:37:00.729Z,13.57
2023-02-22T04:39:29.856Z,15.40
2023-02-22T04:41:57.795Z,15.30
2023-02-22T04:44:26.707Z,14.07
2023-02-22T04:46:54.709Z,15.40
2023-02-22T04:49:24.160Z,13.65
2023-02-22T04:51:53.588Z,14.23
2023-02-22T04:54:26.848Z,17.98
2023-02-22T04:56:54.834Z,14.05
2023-02-22T04:59:23.585Z,14.38
2023-02-22T05:02:01.070Z,15.13
2023-02-22T05:04:28.945Z,17.13
2023-02-22T05:06:56.917Z,13.90
2023-02-22T05:09:24.973Z,14.68
2023-02-22T05:11:52.985Z,15.18
2023-02-22T05:14:22.101Z,17.30
2023-02-22T05:17:14.013Z,14.80
2023-02-22T05:19:42.909Z,14.20
2023-02-22T05:22:10.736Z,16.02
2023-02-22T05:24:40.362Z,18.30
2023-02-22T05:27:08.381Z,20.38
2023-02-22T05:29:41.083Z,19.48
2023-02-22T05:32:11.400Z,18.05
2023-02-22T05:34:39.345Z,18.80
2023-02-22T05:37:07.798Z,17.85
2023-02-22T05:39:35.664Z,17.98
2023-02-22T05:42:03.817Z,21.30
2023-02-22T05:44:34.021Z,21.42
2023-02-22T05:47:03.363Z,22.02
2023-02-22T05:49:31.287Z,20.17
2023-02-22T05:52:00.014Z,21.60
2023-02-22T05:54:29.100Z,23.80
2023-02-22T05:56:57.220Z,24.88
2023-02-22T05:59:25.108Z,23.50
2023-02-22T06:01:53.147Z,21.40
2023-02-22T06:04:21.801Z,23.27
2023-02-22T06:06:49.745Z,21.65
2023-02-22T06:09:17.947Z,20.00
2023-02-22T06:11:46.558Z,22.35
2023-02-22T06:14:14.467Z,23.38
2023-02-22T06:16:42.316Z,24.45
2023-02-22T06:19:10.029Z,26.38
2023-02-22T06:21:37.981Z,29.35
2023-02-22T06:24:06.364Z,31.60
2023-02-22T06:26:36.414Z,33.05
2023-02-22T06:29:06.054Z,23.52
2023-02-22T06:31:36.780Z,24.52
2023-02-22T06:34:08.408Z,25.10
2023-02-22T06:36:36.269Z,26.27
2023-02-22T06:39:05.465Z,29.45
2023-02-22T06:41:37.940Z,24.33
2023-02-22T06:44:13.449Z,26.27
2023-02-22T06:46:49.081Z,25.33
2023-02-22T06:49:17.650Z,24.73
2023-02-22T06:51:46.951Z,21.85
2023-02-22T06:54:15.580Z,23.70
2023-02-22T06:56:43.658Z,25.63
2023-02-22T06:59:11.491Z,28.55
2023-02-22T07:01:43.091Z,27.15
2023-02-22T07:04:16.981Z,25.55
2023-02-22T07:06:52.127Z,26.67
2023-02-22T07:09:20.057Z,30.88
2023-02-22T07:11:48.394Z,23.95
2023-02-22T07:14:18.726Z,27.35
2023-02-22T07:16:46.714Z,25.35
2023-02-22T07:19:15.090Z,25.55
2023-02-22T07:21:43.427Z,25.48
2023-02-22T07:24:11.334Z,24.48
2023-02-22T07:26:43.219Z,24.98
2023-02-22T07:29:12.687Z,24.92
2023-02-22T07:31:40.520Z,25.60
2023-02-22T07:34:08.639Z,24.45
2023-02-22T07:36:36.420Z,27.92
2023-02-22T07:39:04.240Z,26.42
2023-02-22T07:41:32.893Z,25.77
2023-02-22T07:44:01.431Z,28.67
2023-02-22T07:46:30.024Z,25.48
2023-02-22T07:48:57.780Z,25.38
2023-02-22T07:51:25.714Z,24.73
2023-02-22T07:53:54.470Z,25.75
2023-02-22T07:56:22.395Z,28.15
2023-02-22T07:58:50.271Z,26.38
2023-02-22T08:01:19.819Z,26.98
2023-02-22T08:03:47.967Z,27.13
2023-02-22T08:06:15.787Z,23.15
2023-02-22T08:08:43.590Z,24.95
2023-02-22T08:11:11.335Z,27.80
2023-02-22T08:13:39.900Z,24.65
2023-02-22T08:16:08.082Z,27.45
2023-02-22T08:18:38.377Z,25.27
2023-02-22T08:21:06.291Z,26.48
2023-02-22T08:23:34.936Z,24.98
2023-02-22T08:26:08.629Z,24.55
2023-02-22T08:28:36.842Z,26.35
2023-02-22T08:31:07.789Z,21.83
2023-02-22T08:33:36.099Z,24.25
2023-02-22T08:36:04.214Z,24.67
2023-02-22T08:38:34.153Z,32.70
2023-02-22T08:41:01.992Z,41.20
2023-02-22T08:43:29.927Z,29.85
2023-02-22T08:45:58.079Z,27.85
2023-02-22T08:48:26.066Z,24.10
2023-02-22T08:50:55.131Z,23.88
2023-02-22T08:53:23.428Z,21.75
2023-02-22T08:55:51.911Z,21.50
2023-02-22T08:58:19.946Z,19.83
2023-02-22T09:00:48.044Z,21.55
2023-02-22T09:03:16.281Z,21.38
2023-02-22T09:05:45.889Z,20.77
2023-02-22T09:08:13.920Z,20.48
2023-02-22T09:10:42.151Z,18.10
2023-02-22T09:13:09.852Z,19.00
2023-02-22T09:15:39.949Z,18.00
2023-02-22T09:18:11.329Z,14.32
2023-02-22T09:20:39.321Z,18.23
2023-02-22T09:23:09.951Z,18.00
2023-02-22T09:25:41.136Z,20.08
2023-02-22T09:28:09.493Z,14.90
2023-02-22T09:30:37.690Z,15.90
2023-02-22T09:33:12.656Z,16.98
2023-02-22T09:35:48.081Z,33.42
2023-02-22T09:38:19.173Z,28.15
2023-02-22T09:40:53.281Z,38.08
2023-02-22T09:43:40.815Z,34.63
2023-02-22T09:46:56.526Z,27.00
2023-02-22T09:49:47.471Z,46.05
2023-02-22T09:52:24.498Z,41.28
2023-02-22T09:55:18.116Z,39.13
2023-02-22T09:57:47.849Z,38.83
2023-02-22T10:00:22.331Z,73.47
2023-02-22T10:02:58.298Z,64.22
2023-02-22T10:05:34.481Z,42.42
2023-02-22T10:08:06.528Z,54.40
2023-02-22T10:10:39.985Z,69.15
2023-02-22T10:13:43.133Z,90.20
2023-02-22T10:16:31.504Z,106.80
2023-02-22T10:19:21.374Z,163.00
2023-02-22T10:22:05.326Z,136.27
2023-02-22T10:24:58.345Z,78.07
2023-02-22T10:27:52.952Z,65.20
2023-02-22T10:30:25.989Z,58.22
2023-02-22T10:33:22.915Z,86.22
2023-02-22T10:35:53.205Z,111.25
2023-02-22T10:38:25.061Z,110.28
2023-02-22T10:41:11.205Z,117.55
2023-02-22T10:43:44.045Z,67.93
2023-02-22T10:46:16.858Z,62.45
2023-02-22T10:48:47.830Z,44.05
2023-02-22T10:51:15.562Z,37.85
2023-02-22T10:53:44.338Z,30.52
2023-02-22T10:56:16.946Z,25.02
2023-02-22T10:59:02.688Z,21.77
2023-02-22T11:01:34.103Z,19.80
2023-02-22T11:04:21.883Z,18.67
2023-02-22T11:07:01.936Z,22.63
2023-02-22T11:09:29.699Z,20.80
2023-02-22T11:12:19.560Z,18.38
2023-02-22T11:14:48.335Z,19.00
2023-02-22T11:17:24.911Z,19.17
2023-02-22T11:19:53.539Z,20.13
2023-02-22T11:22:37.531Z,24.25
2023-02-22T11:25:07.721Z,26.08
2023-02-22T11:27:43.918Z,17.92
2023-02-22T11:30:35.262Z,22.67
2023-02-22T11:33:25.044Z,25.98
2023-02-22T11:35:57.131Z,28.35
2023-02-22T11:38:29.754Z,34.08
2023-02-22T11:41:10.268Z,43.03
2023-02-22T11:43:38.286Z,59.10
2023-02-22T11:46:21.707Z,46.58
2023-02-22T11:49:02.543Z,30.65
2023-02-22T11:51:38.997Z,26.52
2023-02-22T11:54:25.649Z,24.45
2023-02-22T11:57:18.181Z,45.78
2023-02-22T12:00:16.747Z,30.92
2023-02-22T12:02:56.879Z,41.75
2023-02-22T12:05:37.373Z,35.33
2023-02-22T12:08:20.074Z,25.70
2023-02-22T12:10:51.127Z,19.67
2023-02-22T12:13:53.087Z,23.23
2023-02-22T12:17:02.782Z,26.15
2023-02-22T12:19:39.833Z,27.70
2023-02-22T12:22:14.966Z,27.05
2023-02-22T12:24:51.586Z,22.42
2023-02-22T12:27:33.782Z,24.77
2023-02-22T12:30:18.501Z,21.75
2023-02-22T12:32:55.577Z,22.75
2023-02-22T12:35:37.036Z,27.60
2023-02-22T12:38:18.241Z,26.13
2023-02-22T12:41:09.035Z,10.18
2023-02-22T12:43:45.022Z,26.25
2023-02-22T12:46:20.600Z,39.97
2023-02-22T12:48:57.107Z,30.75
2023-02-22T12:51:32.357Z,25.33
2023-02-22T12:54:34.577Z,23.13
2023-02-22T12:57:29.023Z,24.73
2023-02-22T13:00:04.250Z,25.92
2023-02-22T13:02:39.940Z,25.42
2023-02-22T13:05:15.606Z,24.33
2023-02-22T13:07:55.389Z,22.55
2023-02-22T13:10:35.412Z,25.05
2023-02-22T13:13:31.848Z,22.17
2023-02-22T13:16:32.055Z,25.05
2023-02-22T13:19:09.107Z,28.63
2023-02-22T13:21:53.478Z,20.50
2023-02-22T13:24:27.574Z,20.13
2023-02-22T13:27:12.124Z,19.60
2023-02-22T13:29:44.970Z,20.65
2023-02-22T13:32:37.436Z,20.42
2023-02-22T13:35:26.823Z,22.92
2023-02-22T13:38:39.564Z,45.97
2023-02-22T13:41:17.081Z,53.72
2023-02-22T13:44:00.201Z,44.05
2023-02-22T13:47:10.390Z,35.22
2023-02-22T13:49:56.608Z,24.15
2023-02-22T13:52:28.026Z,22.55
2023-02-22T13:55:11.429Z,23.70
2023-02-22T13:57:51.981Z,28.50
2023-02-22T14:00:23.972Z,34.60
2023-02-22T14:03:12.981Z,27.75
2023-02-22T14:05:47.035Z,28.55
2023-02-22T14:08:22.087Z,34.03
2023-02-22T14:10:57.330Z,43.97
2023-02-22T14:13:27.830Z,49.45
2023-02-22T14:16:02.549Z,35.70
2023-02-22T14:18:46.861Z,29.95
2023-02-22T14:21:22.712Z,44.13
2023-02-22T14:23:55.961Z,88.43
2023-02-22T14:26:54.520Z,107.68
2023-02-22T14:29:22.847Z,91.47
2023-02-22T14:31:51.002Z,87.95
2023-02-22T14:34:49.763Z,68.25
2023-02-22T14:37:22.050Z,61.80
2023-02-22T14:40:02.390Z,170.80
2023-02-22T14:42:41.974Z,97.88
2023-02-22T14:45:09.812Z,72.38
2023-02-22T14:47:49.765Z,101.05
2023-02-22T14:50:25.300Z,92.82
2023-02-22T14:53:20.918Z,55.70
2023-02-22T14:56:04.246Z,51.22
2023-02-22T14:58:47.347Z,81.18
2023-02-22T15:04:29.045Z,227.05
2023-02-22T15:07:00.149Z,232.02
2023-02-22T15:09:34.713Z,112.28
2023-02-22T15:12:07.780Z,94.47
2023-02-22T15:14:39.119Z,71.13
2023-02-22T15:17:18.698Z,62.13
2023-02-22T15:19:48.978Z,36.67
2023-02-22T15:22:26.434Z,31.48
2023-02-22T15:25:06.048Z,26.63
2023-02-22T15:27:38.159Z,28.70
2023-02-22T15:30:30.322Z,26.13
2023-02-22T15:33:15.358Z,20.05
2023-02-22T15:35:44.040Z,22.58
2023-02-22T15:38:12.133Z,22.52
2023-02-22T15:40:43.524Z,24.27
2023-02-22T15:43:25.223Z,28.77
2023-02-22T15:45:56.922Z,27.50
2023-02-22T15:48:27.869Z,30.83
2023-02-22T15:51:17.418Z,38.70
2023-02-22T15:53:50.997Z,49.17
2023-02-22T15:56:26.168Z,44.92
2023-02-22T15:59:12.395Z,36.67
2023-02-22T16:01:46.444Z,28.67
2023-02-22T16:04:28.046Z,30.88
2023-02-22T16:07:17.164Z,25.88
2023-02-22T16:09:50.679Z,46.47
2023-02-22T16:12:29.201Z,125.47
2023-02-22T16:14:59.415Z,129.50
2023-02-22T16:17:44.594Z,79.32
2023-02-22T16:20:25.111Z,77.00
2023-02-22T16:22:58.107Z,54.80
2023-02-22T16:25:33.185Z,49.53
2023-02-22T16:28:06.571Z,63.28
2023-02-22T16:30:39.786Z,40.00
2023-02-22T16:33:16.746Z,40.80
2023-02-22T16:35:52.513Z,46.88
2023-02-22T16:38:21.347Z,42.55
2023-02-22T16:40:55.712Z,32.42
2023-02-22T16:43:27.767Z,30.95
2023-02-22T16:45:56.101Z,30.77
2023-02-22T16:48:26.776Z,20.95
2023-02-22T16:50:57.217Z,22.00
2023-02-22T16:53:29.017Z,18.90
2023-02-22T16:56:09.569Z,14.38
2023-02-22T16:58:41.587Z,19.42
2023-02-22T17:01:09.852Z,24.98
2023-02-22T17:03:37.633Z,17.65
2023-02-22T17:06:06.001Z,20.63
2023-02-22T17:08:33.837Z,15.80
2023-02-22T17:11:01.932Z,14.00
2023-02-22T17:13:29.915Z,13.35
2023-02-22T17:15:58.012Z,17.00
2023-02-22T17:18:29.114Z,17.42
2023-02-22T17:20:58.052Z,24.48
2023-02-22T17:23:27.863Z,13.18
2023-02-22T17:25:59.378Z,16.40
2023-02-22T17:28:27.452Z,15.77
2023-02-22T17:31:01.813Z,24.90
2023-02-22T17:33:37.153Z,28.88
2023-02-22T17:36:05.463Z,19.20
2023-02-22T17:38:34.938Z,16.75
2023-02-22T17:41:03.578Z,14.45
2023-02-22T17:43:31.399Z,15.05
2023-02-22T17:45:59.582Z,15.05
2023-02-22T17:48:36.309Z,17.63
2023-02-22T17:51:11.003Z,11.63
2023-02-22T17:53:41.140Z,14.73
2023-02-22T17:56:12.501Z,9.63
2023-02-22T17:58:43.219Z,11.85
2023-02-22T18:01:30.282Z,10.98
2023-02-22T18:04:01.390Z,11.50
2023-02-22T18:06:32.974Z,13.35
2023-02-22T18:09:10.934Z,18.67
2023-02-22T18:11:45.535Z,13.60
2023-02-22T18:14:17.012Z,17.25
2023-02-22T18:16:47.511Z,19.02
2023-02-22T18:19:22.992Z,12.80
2023-02-22T18:21:54.365Z,21.58
2023-02-22T18:24:27.136Z,18.88
2023-02-22T18:26:54.778Z,18.23
2023-02-22T18:29:22.709Z,15.13
2023-02-22T18:31:53.895Z,15.68
2023-02-22T18:34:25.090Z,18.80
2023-02-22T18:36:53.064Z,10.73
2023-02-22T18:39:20.760Z,10.05
2023-02-22T18:41:51.458Z,10.50
2023-02-22T18:44:20.832Z,10.45
2023-02-22T18:46:48.581Z,11.18
2023-02-22T18:49:17.407Z,9.07
2023-02-22T18:51:46.778Z,10.88
2023-02-22T18:54:14.909Z,12.02
2023-02-22T18:56:42.859Z,10.10
2023-02-22T18:59:13.340Z,16.98
2023-02-22T19:01:42.082Z,48.40
2023-02-22T19:04:10.707Z,41.25
2023-02-22T19:06:39.784Z,31.77
2023-02-22T19:09:08.849Z,24.73
2023-02-22T19:11:37.501Z,23.58
2023-02-22T19:14:05.488Z,18.13
2023-02-22T19:16:33.517Z,17.52
2023-02-22T19:19:02.616Z,17.10
2023-02-22T19:21:31.789Z,15.60
2023-02-22T19:24:02.791Z,16.90
2023-02-22T19:26:30.969Z,15.52
2023-02-22T19:29:05.120Z,20.85
2023-02-22T19:31:34.099Z,17.45
2023-02-22T19:34:10.542Z,13.73
2023-02-22T19:36:47.684Z,14.33
2023-02-22T19:39:17.812Z,16.60
2023-02-22T19:41:46.408Z,19.15
2023-02-22T19:44:17.802Z,27.20
2023-02-22T19:46:47.382Z,24.90
2023-02-22T19:49:16.330Z,22.70
2023-02-22T19:51:45.799Z,20.08
2023-02-22T19:54:17.646Z,17.27
2023-02-22T19:56:51.259Z,21.23
2023-02-22T19:59:23.112Z,17.70
2023-02-22T20:01:55.890Z,16.25
2023-02-22T20:04:25.492Z,17.27
2023-02-22T20:06:54.866Z,18.27
2023-02-22T20:09:30.154Z,19.10
2023-02-22T20:11:58.799Z,18.15
2023-02-22T20:14:28.769Z,15.52
2023-02-22T20:16:58.630Z,19.70
2023-02-22T20:19:28.272Z,20.08
2023-02-22T20:21:56.866Z,21.55
2023-02-22T20:24:25.679Z,24.17
2023-02-22T20:26:55.947Z,20.00
2023-02-22T20:29:29.918Z,19.80
2023-02-22T20:32:03.298Z,17.23
2023-02-22T20:34:33.734Z,17.63
2023-02-22T20:37:02.240Z,15.13
2023-02-22T20:39:30.224Z,16.98
2023-02-22T20:42:03.071Z,16.00
2023-02-22T20:44:31.105Z,13.15
2023-02-22T20:46:59.104Z,15.38
2023-02-22T20:49:27.990Z,15.18
2023-02-22T20:51:55.724Z,12.15
2023-02-22T20:54:31.001Z,14.32
2023-02-22T20:57:07.390Z,16.85
2023-02-22T20:59:35.490Z,12.68
2023-02-22T21:02:05.287Z,12.27
2023-02-22T21:04:33.249Z,16.90
2023-02-22T21:07:03.953Z,14.55
2023-02-22T21:09:33.946Z,18.25
2023-02-22T21:12:01.940Z,14.25
2023-02-22T21:14:32.701Z,14.75
2023-02-22T21:17:05.953Z,12.38
2023-02-22T21:19:34.608Z,12.80
2023-02-22T21:22:08.388Z,14.25
2023-02-22T21:24:37.095Z,16.08
2023-02-22T21:27:07.118Z,13.50
2023-02-22T21:29:35.667Z,12.20
2023-02-22T21:32:04.271Z,13.18
2023-02-22T21:34:32.480Z,15.10
2023-02-22T21:37:02.643Z,13.27
2023-02-22T21:39:39.087Z,13.45
2023-02-22T21:42:22.484Z,14.00
2023-02-22T21:45:20.858Z,17.40
2023-02-22T21:47:54.713Z,22.20
2023-02-22T21:50:31.346Z,18.67
2023-02-22T21:52:59.480Z,20.38
2023-02-22T21:55:27.338Z,15.02
2023-02-22T21:58:05.105Z,13.10
2023-02-22T22:00:39.273Z,12.27
2023-02-22T22:03:20.660Z,12.75
2023-02-22T22:05:48.957Z,13.95
2023-02-22T22:08:19.939Z,14.13
2023-02-22T22:11:09.443Z,12.55
2023-02-22T22:13:45.587Z,14.65
2023-02-22T22:16:23.375Z,11.02
2023-02-22T22:18:54.779Z,12.10
2023-02-22T22:24:16.832Z,16.30
2023-02-22T22:26:58.003Z,23.80
2023-02-22T22:29:39.178Z,23.70
2023-02-22T22:32:10.841Z,21.63
2023-02-22T22:34:49.501Z,15.68
2023-02-22T22:37:28.510Z,17.95
2023-02-22T22:40:12.254Z,15.93
2023-02-22T22:42:47.487Z,15.10
2023-02-22T22:45:22.944Z,14.23
2023-02-22T22:47:59.399Z,13.55
2023-02-22T22:50:27.434Z,14.50
2023-02-22T22:53:23.609Z,12.77
2023-02-22T22:55:54.500Z,11.98
2023-02-22T22:58:48.702Z,12.38
2023-02-22T23:01:39.788Z,19.23
2023-02-22T23:04:19.488Z,15.75
2023-02-22T23:07:11.142Z,15.07
2023-02-22T23:09:45.245Z,13.70
2023-02-22T23:12:17.948Z,16.02
2023-02-22T23:14:53.304Z,14.00
2023-02-22T23:21:14.854Z,17.40
2023-02-22T23:23:57.760Z,14.02
2023-02-22T23:26:57.768Z,16.45
2023-02-22T23:29:29.838Z,15.80
2023-02-22T23:32:05.790Z,14.60
2023-02-22T23:34:58.750Z,12.00
2023-02-22T23:37:30.262Z,14.77
2023-02-22T23:40:03.928Z,13.80
2023-02-22T23:42:55.590Z,17.88
2023-02-22T23:45:24.261Z,18.52
2023-02-22T23:48:05.193Z,15.07
2023-02-22T23:50:42.108Z,14.80
2023-02-22T23:53:27.769Z,13.50
2023-02-22T23:56:17.016Z,14.98
2023-02-22T23:58:50.427Z,14.60
